Time;durP1;ratioP1;P1;durP2;ratioP2;P2;SDS_P1;SDS_P2;PMS_P1;PMS_P2;Temp;Humidity;BMP_temperature;BMP_pressure;BME280_temperature;BME280_humidity;BME280_pressure;Samples;Min_cycle;Max_cycle;Signal;HPM_P1;HPM_P2
2023/06/16 00:01:39;;;;;;;1.20;1.10;;;;;;;;;;4898994;29;20044;-89
2023/06/16 00:04:28;;;;;;;3.42;1.20;;;;;;;;;;4899224;29;20052;-90
2023/06/16 00:07:13;;;;;;;2.80;1.50;;;;;;;;;;4898029;29;20057;-89
2023/06/16 00:09:59;;;;;;;1.50;1.40;;;;;;;;;;4899211;29;20048;-90
2023/06/16 00:12:44;;;;;;;1.52;1.40;;;;;;;;;;4899423;29;20048;-89
2023/06/16 00:15:32;;;;;;;1.50;1.30;;;;;;;;;;4909280;29;20041;-89
2023/06/16 00:18:18;;;;;;;2.22;1.60;;;;;;;;;;4906190;29;20044;-89
2023/06/16 00:21:03;;;;;;;2.83;1.60;;;;;;;;;;4897928;29;20406;-89
2023/06/16 00:23:49;;;;;;;4.50;1.73;;;;;;;;;;4898701;29;20061;-89
2023/06/16 00:26:35;;;;;;;1.95;1.67;;;;;;;;;;4898583;29;20065;-88
2023/06/16 00:29:21;;;;;;;1.60;1.50;;;;;;;;;;4898498;29;20053;-89
2023/06/16 00:32:07;;;;;;;2.53;1.50;;;;;;;;;;4899070;29;20048;-89
2023/06/16 00:34:54;;;;;;;6.45;1.70;;;;;;;;;;4904251;29;20403;-82
2023/06/16 00:37:39;;;;;;;2.58;1.60;;;;;;;;;;4904760;29;20052;-81
2023/06/16 00:40:27;;;;;;;2.00;1.60;;;;;;;;;;4903933;29;20049;-87
2023/06/16 00:43:13;;;;;;;2.60;1.52;;;;;;;;;;4890614;29;20044;-87
2023/06/16 00:45:58;;;;;;;3.47;1.60;;;;;;;;;;4889529;29;20053;-89
2023/06/16 00:48:44;;;;;;;3.10;1.63;;;;;;;;;;4898547;29;20048;-88
2023/06/16 00:51:30;;;;;;;2.65;1.50;;;;;;;;;;4898810;29;20048;-90
2023/06/16 00:54:16;;;;;;;2.33;1.42;;;;;;;;;;4890910;29;20049;-88
2023/06/16 00:57:06;;;;;;;2.47;1.33;;;;;;;;;;4878358;29;20056;-87
2023/06/16 00:59:52;;;;;;;3.00;1.38;;;;;;;;;;4894348;29;20045;-87
2023/06/16 01:02:38;;;;;;;3.78;1.30;;;;;;;;;;4906548;29;20041;-87
2023/06/16 01:05:24;;;;;;;2.50;1.48;;;;;;;;;;4904821;29;20052;-88
2023/06/16 01:08:13;;;;;;;1.95;1.40;;;;;;;;;;4900927;29;20049;-89
2023/06/16 01:11:27;;;;;;;2.05;1.42;;;;;;;;;;4907103;29;20048;-89
2023/06/16 01:14:28;;;;;;;2.07;1.53;;;;;;;;;;4902281;29;20044;-89
2023/06/16 01:17:15;;;;;;;1.42;1.30;;;;;;;;;;4901669;29;20053;-88
2023/06/16 01:20:09;;;;;;;8.30;1.92;;;;;;;;;;4902322;29;20052;-90
2023/06/16 01:23:15;;;;;;;2.50;1.60;;;;;;;;;;4902276;29;20041;-90
2023/06/16 01:26:02;;;;;;;2.38;1.75;;;;;;;;;;4894384;29;20056;-89
2023/06/16 01:28:49;;;;;;;4.88;1.92;;;;;;;;;;4901746;29;20052;-90
2023/06/16 01:31:38;;;;;;;3.13;2.10;;;;;;;;;;4893695;29;20044;-89
2023/06/16 01:34:26;;;;;;;1.92;1.77;;;;;;;;;;4901387;29;20044;-90
2023/06/16 01:37:12;;;;;;;2.50;1.70;;;;;;;;;;4894347;29;20044;-89
2023/06/16 01:39:59;;;;;;;3.25;1.70;;;;;;;;;;4902358;29;20052;-89
2023/06/16 01:42:46;;;;;;;2.15;1.80;;;;;;;;;;4894239;29;20048;-90
2023/06/16 01:45:32;;;;;;;2.20;1.90;;;;;;;;;;4894070;29;20066;-90
2023/06/16 01:48:21;;;;;;;1.90;1.80;;;;;;;;;;4888001;29;20044;-89
2023/06/16 01:51:07;;;;;;;3.92;1.92;;;;;;;;;;4894296;29;20044;-89
2023/06/16 01:53:53;;;;;;;2.95;1.98;;;;;;;;;;4901300;29;20044;-89
2023/06/16 01:56:39;;;;;;;3.05;1.77;;;;;;;;;;4894106;29;20394;-90
2023/06/16 01:59:24;;;;;;;3.20;2.90;;;;;;;;;;4911305;29;20041;-89
2023/06/16 02:02:16;;;;;;;118.40;75.72;;;;;;;;;;4915023;29;20060;-90
2023/06/16 02:05:05;;;;;;;102.72;65.55;;;;;;;;;;4908647;29;20044;-90
2023/06/16 02:07:53;;;;;;;127.63;80.03;;;;;;;;;;4907339;29;20048;-89
2023/06/16 02:10:39;;;;;;;233.63;142.18;;;;;;;;;;4902098;29;20499;-90
2023/06/16 02:13:25;;;;;;;203.43;125.60;;;;;;;;;;4901802;29;20044;-90
2023/06/16 02:16:12;;;;;;;40.33;23.65;;;;;;;;;;4903091;29;20045;-90
2023/06/16 02:18:58;;;;;;;17.30;11.82;;;;;;;;;;4909575;29;20390;-89
2023/06/16 02:21:43;;;;;;;23.60;18.23;;;;;;;;;;4893799;29;20045;-89
2023/06/16 02:24:28;;;;;;;7.10;4.00;;;;;;;;;;4906616;29;20045;-90
2023/06/16 02:27:14;;;;;;;5.65;2.35;;;;;;;;;;4899558;29;20044;-89
2023/06/16 02:30:00;;;;;;;4.25;1.88;;;;;;;;;;4907012;29;20044;-90
2023/06/16 02:32:48;;;;;;;15.10;11.35;;;;;;;;;;4893028;29;20052;-89
2023/06/16 02:35:34;;;;;;;4.00;2.95;;;;;;;;;;4905767;29;20041;-90
2023/06/16 02:38:19;;;;;;;3.08;2.30;;;;;;;;;;4900640;29;20391;-90
2023/06/16 02:41:05;;;;;;;3.92;1.80;;;;;;;;;;4906673;29;20372;-90
2023/06/16 02:43:50;;;;;;;3.58;1.90;;;;;;;;;;4894234;29;20049;-93
2023/06/16 02:46:36;;;;;;;2.30;1.63;;;;;;;;;;4903587;29;20048;-89
2023/06/16 02:49:22;;;;;;;3.58;1.90;;;;;;;;;;4906474;29;20494;-89
2023/06/16 02:52:11;;;;;;;3.22;1.92;;;;;;;;;;4901592;29;20056;-89
2023/06/16 02:54:57;;;;;;;2.22;2.00;;;;;;;;;;4894887;29;20490;-88
2023/06/16 02:57:48;;;;;;;3.95;1.90;;;;;;;;;;4894730;29;20045;-85
2023/06/16 03:00:35;;;;;;;2.65;1.50;;;;;;;;;;4893811;29;20037;-89
2023/06/16 03:03:36;;;;;;;5.50;1.40;;;;;;;;;;4901192;29;20048;-92
2023/06/16 03:06:44;;;;;;;2.72;1.58;;;;;;;;;;4895822;29;20045;-92
2023/06/16 03:09:42;;;;;;;4.10;1.30;;;;;;;;;;4889360;29;20045;-91
2023/06/16 03:12:28;;;;;;;2.03;1.42;;;;;;;;;;4911506;29;20049;-91
2023/06/16 03:15:25;;;;;;;1.60;1.50;;;;;;;;;;4912385;29;20044;-91
2023/06/16 03:18:12;;;;;;;2.28;1.40;;;;;;;;;;4906108;29;20486;-91
2023/06/16 03:20:57;;;;;;;1.70;1.50;;;;;;;;;;4906621;29;20391;-90
2023/06/16 03:23:48;;;;;;;3.35;2.72;;;;;;;;;;4905813;29;20036;-90
2023/06/16 03:26:35;;;;;;;5.93;2.63;;;;;;;;;;4906665;29;20052;-91
2023/06/16 03:29:31;;;;;;;3.80;2.30;;;;;;;;;;4906147;29;20045;-93
2023/06/16 03:32:16;;;;;;;2.63;1.48;;;;;;;;;;4893783;29;20489;-91
2023/06/16 03:35:02;;;;;;;7.65;1.60;;;;;;;;;;4893653;29;20049;-92
2023/06/16 03:37:48;;;;;;;1.83;1.40;;;;;;;;;;4909932;29;20044;-90
2023/06/16 03:40:34;;;;;;;3.05;1.40;;;;;;;;;;4924145;29;20040;-92
2023/06/16 03:43:22;;;;;;;4.53;1.35;;;;;;;;;;4896988;29;20044;-90
2023/06/16 03:46:07;;;;;;;1.40;1.30;;;;;;;;;;4899401;29;20049;-90
2023/06/16 03:48:55;;;;;;;2.08;1.40;;;;;;;;;;4908763;29;20045;-90
2023/06/16 03:51:40;;;;;;;2.53;1.40;;;;;;;;;;4893719;29;20044;-90
2023/06/16 03:54:27;;;;;;;1.25;1.15;;;;;;;;;;4894849;29;20387;-90
2023/06/16 03:57:13;;;;;;;1.83;1.30;;;;;;;;;;4893796;29;20048;-89
2023/06/16 03:59:58;;;;;;;1.73;1.10;;;;;;;;;;4900777;29;20486;-90
2023/06/16 04:02:44;;;;;;;2.00;1.33;;;;;;;;;;4902120;29;20044;-90
2023/06/16 04:05:38;;;;;;;3.83;1.05;;;;;;;;;;4910286;29;20060;-90
2023/06/16 04:08:24;;;;;;;1.85;1.10;;;;;;;;;;4906498;29;20502;-90
2023/06/16 04:11:11;;;;;;;4.35;1.30;;;;;;;;;;4907810;29;20041;-90
2023/06/16 04:13:56;;;;;;;2.10;1.30;;;;;;;;;;4897052;29;20045;-90
2023/06/16 04:16:43;;;;;;;2.95;1.30;;;;;;;;;;4912162;29;20483;-90
2023/06/16 04:19:29;;;;;;;2.45;1.70;;;;;;;;;;4900399;29;20044;-90
2023/06/16 04:22:16;;;;;;;3.08;1.00;;;;;;;;;;4913044;29;20052;-88
2023/06/16 04:25:13;;;;;;;3.53;1.23;;;;;;;;;;4895027;29;20048;-89
2023/06/16 04:28:01;;;;;;;4.03;1.40;;;;;;;;;;4901742;29;20037;-87
2023/06/16 04:30:50;;;;;;;2.10;1.23;;;;;;;;;;4915469;29;20033;-87
2023/06/16 04:33:41;;;;;;;3.70;1.70;;;;;;;;;;4917729;29;20438;-87
2023/06/16 04:36:29;;;;;;;1.98;1.13;;;;;;;;;;4905455;29;20049;-88
2023/06/16 04:39:17;;;;;;;1.73;1.10;;;;;;;;;;4894636;29;20057;-88
2023/06/16 04:42:06;;;;;;;8.93;1.60;;;;;;;;;;4894736;29;20040;-89
2023/06/16 04:44:53;;;;;;;2.20;1.30;;;;;;;;;;4902100;29;20056;-88
2023/06/16 04:47:41;;;;;;;3.28;1.58;;;;;;;;;;4903301;29;20045;-88
2023/06/16 04:50:26;;;;;;;2.08;1.23;;;;;;;;;;4902809;29;20049;-88
2023/06/16 04:53:12;;;;;;;3.38;1.20;;;;;;;;;;4894543;29;20406;-86
2023/06/16 04:55:57;;;;;;;2.33;1.40;;;;;;;;;;4894070;29;20045;-88
2023/06/16 04:58:42;;;;;;;2.95;1.60;;;;;;;;;;4901898;29;20057;-88
2023/06/16 05:01:28;;;;;;;6.45;1.95;;;;;;;;;;4901880;29;20053;-88
2023/06/16 05:04:13;;;;;;;1.25;1.00;;;;;;;;;;4907005;29;20048;-87
2023/06/16 05:07:00;;;;;;;5.20;1.20;;;;;;;;;;4907737;29;20048;-87
2023/06/16 05:09:46;;;;;;;2.15;1.20;;;;;;;;;;4907755;29;20044;-88
2023/06/16 05:12:32;;;;;;;3.92;1.60;;;;;;;;;;4901957;29;20041;-87
2023/06/16 05:15:18;;;;;;;2.17;1.25;;;;;;;;;;4893502;29;20040;-88
2023/06/16 05:18:05;;;;;;;3.97;1.30;;;;;;;;;;4907277;29;20056;-87
2023/06/16 05:20:51;;;;;;;2.53;1.30;;;;;;;;;;4907908;29;20040;-88
2023/06/16 05:23:36;;;;;;;3.08;1.58;;;;;;;;;;4906811;29;20057;-88
2023/06/16 05:26:22;;;;;;;9.20;2.30;;;;;;;;;;4894372;29;20048;-87
2023/06/16 05:29:08;;;;;;;3.05;1.92;;;;;;;;;;4898399;29;20048;-87
2023/06/16 05:31:53;;;;;;;4.85;2.80;;;;;;;;;;4893953;29;20049;-88
2023/06/16 05:34:39;;;;;;;2.92;1.80;;;;;;;;;;4893873;29;20048;-88
2023/06/16 05:37:25;;;;;;;2.08;1.45;;;;;;;;;;4891449;29;20044;-88
2023/06/16 05:40:10;;;;;;;1.30;1.20;;;;;;;;;;4900538;29;20419;-88
2023/06/16 05:42:56;;;;;;;4.07;1.30;;;;;;;;;;4906359;29;20406;-87
2023/06/16 05:45:42;;;;;;;3.78;1.20;;;;;;;;;;4905503;29;20040;-88
2023/06/16 05:48:28;;;;;;;3.63;2.00;;;;;;;;;;4892874;29;20044;-87
2023/06/16 05:51:14;;;;;;;5.20;4.10;;;;;;;;;;4893065;29;20414;-87
2023/06/16 05:54:00;;;;;;;2.45;1.40;;;;;;;;;;4893727;29;20048;-87
2023/06/16 05:56:45;;;;;;;3.15;1.13;;;;;;;;;;4892704;29;20044;-87
2023/06/16 05:59:31;;;;;;;6.05;3.17;;;;;;;;;;4893455;29;20048;-87
2023/06/16 06:02:19;;;;;;;4.38;2.50;;;;;;;;;;4893252;29;20486;-86
2023/06/16 06:05:04;;;;;;;1.55;1.30;;;;;;;;;;4907082;29;20045;-86
2023/06/16 06:07:50;;;;;;;1.00;0.90;;;;;;;;;;4893109;29;20044;-87
2023/06/16 06:10:35;;;;;;;3.47;1.50;;;;;;;;;;4893030;29;20049;-86
2023/06/16 06:13:21;;;;;;;1.50;1.30;;;;;;;;;;4901403;29;20045;-86
2023/06/16 06:16:08;;;;;;;4.13;1.40;;;;;;;;;;4894064;29;20041;-87
2023/06/16 06:18:53;;;;;;;1.50;1.40;;;;;;;;;;4905936;29;20036;-87
2023/06/16 06:21:42;;;;;;;1.85;1.45;;;;;;;;;;4905900;29;20045;-86
2023/06/16 06:24:27;;;;;;;1.50;1.40;;;;;;;;;;4892641;29;20057;-87
2023/06/16 06:27:14;;;;;;;2.67;1.60;;;;;;;;;;4905775;29;20436;-87
2023/06/16 06:29:59;;;;;;;1.88;1.73;;;;;;;;;;4886538;29;20045;-87
2023/06/16 06:32:45;;;;;;;2.15;1.75;;;;;;;;;;4900456;29;20045;-88
2023/06/16 06:35:31;;;;;;;2.70;1.90;;;;;;;;;;4892959;29;20048;-87
2023/06/16 06:38:17;;;;;;;1.50;1.40;;;;;;;;;;4906139;29;20479;-86
2023/06/16 06:41:04;;;;;;;2.40;1.80;;;;;;;;;;4905711;29;20044;-86
2023/06/16 06:43:50;;;;;;;2.13;1.90;;;;;;;;;;4905677;29;20383;-87
2023/06/16 06:46:47;;;;;;;2.78;1.50;;;;;;;;;;4889324;29;20049;-87
2023/06/16 06:49:32;;;;;;;1.88;1.70;;;;;;;;;;4892655;29;20044;-88
2023/06/16 06:52:18;;;;;;;2.60;1.92;;;;;;;;;;4900596;29;20040;-85
2023/06/16 06:55:04;;;;;;;2.15;1.70;;;;;;;;;;4905862;29;20041;-87
2023/06/16 06:57:50;;;;;;;2.50;1.67;;;;;;;;;;4899905;29;20044;-84
2023/06/16 07:00:35;;;;;;;2.83;1.80;;;;;;;;;;4911455;29;20044;-85
2023/06/16 07:03:20;;;;;;;3.13;2.03;;;;;;;;;;4905000;29;20045;-85
2023/06/16 07:06:06;;;;;;;2.70;1.85;;;;;;;;;;4904914;29;20502;-85
2023/06/16 07:08:51;;;;;;;3.03;1.60;;;;;;;;;;4905034;29;20049;-87
2023/06/16 07:11:38;;;;;;;2.47;1.80;;;;;;;;;;4911755;29;20048;-86
2023/06/16 07:14:23;;;;;;;3.00;1.80;;;;;;;;;;4905565;29;20048;-85
2023/06/16 07:17:08;;;;;;;2.40;1.95;;;;;;;;;;4909491;29;20410;-86
2023/06/16 07:19:54;;;;;;;2.10;1.90;;;;;;;;;;4904600;29;20067;-86
2023/06/16 07:22:42;;;;;;;2.28;2.08;;;;;;;;;;4900528;29;20053;-87
2023/06/16 07:25:28;;;;;;;2.28;1.90;;;;;;;;;;4899985;29;20056;-85
2023/06/16 07:28:13;;;;;;;2.40;2.03;;;;;;;;;;4899912;29;20036;-87
2023/06/16 07:30:58;;;;;;;2.00;1.80;;;;;;;;;;4900990;29;20048;-87
2023/06/16 07:33:44;;;;;;;3.30;2.47;;;;;;;;;;4901048;29;20060;-88
2023/06/16 07:36:31;;;;;;;2.95;2.65;;;;;;;;;;4902145;29;20479;-85
2023/06/16 07:39:17;;;;;;;3.63;3.20;;;;;;;;;;4904204;29;20052;-86
2023/06/16 07:42:02;;;;;;;4.80;3.35;;;;;;;;;;4899958;29;20044;-83
2023/06/16 07:44:49;;;;;;;3.92;3.10;;;;;;;;;;4905931;29;20482;-86
2023/06/16 07:47:34;;;;;;;5.22;3.90;;;;;;;;;;4899169;29;20496;-85
2023/06/16 07:50:19;;;;;;;7.40;4.47;;;;;;;;;;4899067;29;20473;-85
2023/06/16 07:53:05;;;;;;;4.10;3.22;;;;;;;;;;4897410;29;20056;-81
2023/06/16 07:55:51;;;;;;;5.50;4.55;;;;;;;;;;4905028;29;20445;-82
2023/06/16 07:58:38;;;;;;;3.28;2.88;;;;;;;;;;4905473;29;20490;-80
2023/06/16 08:01:23;;;;;;;5.32;2.70;;;;;;;;;;4898866;29;20056;-79
2023/06/16 08:04:08;;;;;;;24.13;21.40;;;;;;;;;;4898454;29;20052;-79
2023/06/16 08:06:54;;;;;;;6.68;4.88;;;;;;;;;;4898250;29;20499;-81
2023/06/16 08:09:40;;;;;;;35.13;24.38;;;;;;;;;;4898605;29;20049;-80
2023/06/16 08:12:26;;;;;;;245.90;172.63;;;;;;;;;;4905555;29;20044;-79
2023/06/16 08:15:11;;;;;;;45.88;32.80;;;;;;;;;;4903984;29;20040;-80
2023/06/16 08:17:56;;;;;;;34.17;23.75;;;;;;;;;;4898180;29;20414;-80
2023/06/16 08:20:42;;;;;;;19.30;14.35;;;;;;;;;;4897579;29;20426;-79
2023/06/16 08:23:27;;;;;;;5.95;4.45;;;;;;;;;;4899163;29;20048;-81
2023/06/16 08:26:13;;;;;;;6.35;4.53;;;;;;;;;;4898848;29;20053;-81
2023/06/16 08:28:59;;;;;;;4.18;3.03;;;;;;;;;;4898265;29;20044;-81
2023/06/16 08:31:44;;;;;;;2.50;2.20;;;;;;;;;;4890666;29;20049;-82
2023/06/16 08:34:30;;;;;;;7.30;3.42;;;;;;;;;;4899165;29;20049;-83
2023/06/16 08:37:15;;;;;;;3.08;2.58;;;;;;;;;;4904512;29;20044;-81
2023/06/16 08:40:00;;;;;;;3.60;3.05;;;;;;;;;;4898546;29;20040;-82
2023/06/16 08:42:47;;;;;;;3.53;2.53;;;;;;;;;;4898585;29;20040;-81
2023/06/16 08:45:35;;;;;;;3.35;2.55;;;;;;;;;;4898781;29;20041;-81
2023/06/16 08:48:20;;;;;;;2.88;2.47;;;;;;;;;;4904728;29;20045;-84
2023/06/16 08:51:09;;;;;;;5.05;2.67;;;;;;;;;;4898654;29;20422;-85
2023/06/16 08:54:00;;;;;;;3.25;2.20;;;;;;;;;;4878932;29;20044;-82
2023/06/16 08:56:48;;;;;;;3.08;2.42;;;;;;;;;;4901235;29;20049;-83
2023/06/16 08:59:33;;;;;;;3.80;2.75;;;;;;;;;;4897350;29;20044;-83
2023/06/16 09:02:23;;;;;;;3.65;2.90;;;;;;;;;;4903771;29;20041;-87
2023/06/16 09:05:10;;;;;;;3.65;2.60;;;;;;;;;;4896926;29;20052;-85
2023/06/16 09:07:57;;;;;;;8.73;5.20;;;;;;;;;;4897354;29;20048;-84
2023/06/16 09:10:43;;;;;;;7.05;5.05;;;;;;;;;;4903416;29;20053;-85
2023/06/16 09:13:29;;;;;;;10.45;5.05;;;;;;;;;;4898040;29;20395;-85
2023/06/16 09:16:16;;;;;;;7.40;4.70;;;;;;;;;;4898146;29;20056;-77
2023/06/16 09:19:09;;;;;;;4.68;4.28;;;;;;;;;;4899660;29;20422;-80
2023/06/16 09:21:56;;;;;;;4.88;4.18;;;;;;;;;;4900576;29;20394;-84
2023/06/16 09:24:53;;;;;;;6.00;4.70;;;;;;;;;;4891833;29;20041;-79
2023/06/16 09:27:50;;;;;;;9.00;7.43;;;;;;;;;;4893453;29;20052;-79
2023/06/16 09:30:36;;;;;;;8.98;6.30;;;;;;;;;;4901224;29;20040;-80
2023/06/16 09:33:27;;;;;;;4.78;3.95;;;;;;;;;;4893314;29;20048;-80
2023/06/16 09:36:25;;;;;;;2.95;2.67;;;;;;;;;;4905894;29;20420;-80
2023/06/16 09:39:24;;;;;;;5.18;2.90;;;;;;;;;;4892310;29;20044;-79
2023/06/16 09:42:13;;;;;;;3.97;3.58;;;;;;;;;;4900734;29;20044;-80
2023/06/16 09:45:00;;;;;;;4.90;3.97;;;;;;;;;;4900785;29;20052;-80
2023/06/16 09:47:49;;;;;;;5.90;4.45;;;;;;;;;;4900465;29;20502;-78
2023/06/16 09:50:36;;;;;;;4.32;3.92;;;;;;;;;;4907307;29;20359;-78
2023/06/16 09:53:22;;;;;;;5.63;4.80;;;;;;;;;;4901283;29;20040;-79
2023/06/16 09:56:08;;;;;;;6.60;5.30;;;;;;;;;;4905714;29;20048;-79
2023/06/16 09:58:53;;;;;;;7.47;3.92;;;;;;;;;;4905728;29;20048;-79
2023/06/16 10:01:43;;;;;;;4.57;3.88;;;;;;;;;;4901440;29;20483;-79
2023/06/16 10:04:30;;;;;;;5.05;3.83;;;;;;;;;;4917550;29;20060;-80
2023/06/16 10:07:15;;;;;;;5.45;3.88;;;;;;;;;;4918664;29;20048;-80
2023/06/16 10:10:02;;;;;;;4.95;4.18;;;;;;;;;;4905022;29;20057;-80
2023/06/16 10:12:49;;;;;;;7.05;4.60;;;;;;;;;;4900256;29;20049;-76
2023/06/16 10:15:38;;;;;;;9.65;4.88;;;;;;;;;;4906990;29;20053;-76
2023/06/16 10:18:25;;;;;;;3.13;2.80;;;;;;;;;;4906252;29;20044;-76
2023/06/16 10:21:11;;;;;;;4.25;3.42;;;;;;;;;;4900117;29;20053;-76
2023/06/16 10:23:56;;;;;;;13.30;8.93;;;;;;;;;;4900403;29;20068;-76
2023/06/16 10:26:43;;;;;;;11.57;9.32;;;;;;;;;;4900413;29;20060;-76
2023/06/16 10:29:28;;;;;;;14.77;4.95;;;;;;;;;;4900065;29;20399;-78
2023/06/16 10:32:14;;;;;;;20.98;15.85;;;;;;;;;;4900029;29;20044;-77
2023/06/16 10:35:00;;;;;;;4.90;3.25;;;;;;;;;;4899478;29;20052;-77
2023/06/16 10:37:53;;;;;;;6.15;2.88;;;;;;;;;;4900252;29;20049;-77
2023/06/16 10:40:42;;;;;;;4.03;2.85;;;;;;;;;;4892329;29;20493;-76
2023/06/16 10:43:27;;;;;;;5.50;4.38;;;;;;;;;;4900360;29;20398;-75
2023/06/16 10:46:13;;;;;;;3.97;2.95;;;;;;;;;;4898361;29;20052;-75
2023/06/16 10:49:05;;;;;;;3.83;2.95;;;;;;;;;;4899692;29;20402;-75
2023/06/16 10:51:50;;;;;;;3.67;3.30;;;;;;;;;;4906364;29;20044;-76
2023/06/16 10:54:44;;;;;;;3.88;3.28;;;;;;;;;;4899759;29;20402;-76
2023/06/16 10:57:29;;;;;;;5.00;3.65;;;;;;;;;;4899377;29;20053;-76
2023/06/16 11:00:16;;;;;;;10.52;7.28;;;;;;;;;;4905935;29;20398;-76
2023/06/16 11:03:03;;;;;;;3.85;3.38;;;;;;;;;;4901380;29;20049;-77
2023/06/16 11:05:58;;;;;;;7.05;3.75;;;;;;;;;;4900273;29;20048;-76
2023/06/16 11:08:55;;;;;;;4.45;3.63;;;;;;;;;;4899110;29;20045;-77
2023/06/16 11:11:40;;;;;;;4.75;3.53;;;;;;;;;;4900236;29;20052;-76
2023/06/16 11:14:27;;;;;;;5.38;4.00;;;;;;;;;;4905452;29;20052;-76
2023/06/16 11:17:13;;;;;;;4.68;3.78;;;;;;;;;;4899079;29;20045;-77
2023/06/16 11:20:01;;;;;;;5.68;3.10;;;;;;;;;;4899618;29;20487;-76
2023/06/16 11:22:46;;;;;;;5.75;3.47;;;;;;;;;;4899051;29;20037;-78
2023/06/16 11:25:31;;;;;;;6.00;4.05;;;;;;;;;;4898951;29;20040;-76
2023/06/16 11:28:21;;;;;;;7.55;4.97;;;;;;;;;;4898994;29;20048;-77
2023/06/16 11:31:08;;;;;;;4.57;4.18;;;;;;;;;;4899049;29;20402;-77
2023/06/16 11:33:54;;;;;;;6.78;4.32;;;;;;;;;;4898712;29;20048;-76
2023/06/16 11:36:45;;;;;;;5.53;4.63;;;;;;;;;;4899826;29;20045;-77
2023/06/16 11:39:43;;;;;;;7.10;4.68;;;;;;;;;;4898417;29;20048;-77
2023/06/16 11:42:29;;;;;;;6.53;4.72;;;;;;;;;;4897325;29;20048;-77
2023/06/16 11:45:14;;;;;;;8.27;4.35;;;;;;;;;;4899153;29;20474;-77
2023/06/16 11:48:03;;;;;;;5.50;4.22;;;;;;;;;;4898110;29;20056;-76
2023/06/16 11:51:00;;;;;;;6.38;4.80;;;;;;;;;;4898576;29;20105;-77
2023/06/16 11:53:47;;;;;;;5.95;4.70;;;;;;;;;;4905185;29;20490;-77
2023/06/16 11:56:33;;;;;;;4.90;4.20;;;;;;;;;;4904557;29;20048;-77
2023/06/16 11:59:20;;;;;;;5.60;4.47;;;;;;;;;;4904843;29;20491;-78
2023/06/16 12:02:09;;;;;;;6.18;4.57;;;;;;;;;;4904460;29;20040;-78
2023/06/16 12:04:59;;;;;;;8.10;5.35;;;;;;;;;;4905004;29;20052;-78
2023/06/16 12:07:46;;;;;;;10.40;6.53;;;;;;;;;;4904367;29;20037;-78
2023/06/16 12:10:33;;;;;;;10.35;6.53;;;;;;;;;;4898310;29;20060;-78
2023/06/16 12:13:18;;;;;;;6.85;4.90;;;;;;;;;;4904740;29;20402;-79
2023/06/16 12:16:08;;;;;;;9.85;7.38;;;;;;;;;;4898532;29;20037;-76
2023/06/16 12:18:53;;;;;;;24.58;15.40;;;;;;;;;;4905091;29;20044;-78
2023/06/16 12:21:39;;;;;;;42.65;27.65;;;;;;;;;;4897582;29;20056;-79
2023/06/16 12:24:26;;;;;;;19.95;11.48;;;;;;;;;;4904575;29;20048;-80
2023/06/16 12:27:24;;;;;;;19.73;12.35;;;;;;;;;;4898269;29;20402;-77
2023/06/16 12:30:09;;;;;;;20.05;14.68;;;;;;;;;;4897908;29;20045;-78
2023/06/16 12:32:54;;;;;;;32.25;26.20;;;;;;;;;;4897963;29;20501;-77
2023/06/16 12:35:41;;;;;;;21.33;18.70;;;;;;;;;;4904118;29;20049;-78
2023/06/16 12:38:31;;;;;;;23.63;18.38;;;;;;;;;;4904840;29;20052;-78
2023/06/16 12:41:20;;;;;;;19.58;15.80;;;;;;;;;;4897999;29;20060;-77
2023/06/16 12:44:06;;;;;;;25.77;21.33;;;;;;;;;;4904384;29;20049;-76
2023/06/16 12:46:52;;;;;;;24.33;17.52;;;;;;;;;;4900908;29;20049;-77
2023/06/16 12:49:38;;;;;;;16.85;11.20;;;;;;;;;;4903312;29;20044;-77
2023/06/16 12:52:25;;;;;;;10.63;7.75;;;;;;;;;;4903542;29;20494;-77
2023/06/16 12:55:10;;;;;;;9.38;7.53;;;;;;;;;;4899594;29;20041;-79
2023/06/16 12:57:55;;;;;;;11.23;7.22;;;;;;;;;;4900342;29;20056;-78
2023/06/16 13:00:41;;;;;;;9.00;6.85;;;;;;;;;;4900300;29;20053;-77
2023/06/16 13:03:26;;;;;;;14.27;10.07;;;;;;;;;;4900878;29;20056;-78
2023/06/16 13:06:18;;;;;;;12.57;8.20;;;;;;;;;;4906652;29;20495;-77
2023/06/16 13:09:04;;;;;;;10.23;7.57;;;;;;;;;;4900200;29;20053;-76
2023/06/16 13:12:02;;;;;;;15.68;9.98;;;;;;;;;;4906514;29;20044;-78
2023/06/16 13:14:48;;;;;;;7.22;5.93;;;;;;;;;;4892859;29;20053;-78
2023/06/16 13:17:33;;;;;;;20.10;13.00;;;;;;;;;;4906389;29;20494;-76
2023/06/16 13:20:19;;;;;;;8.70;6.38;;;;;;;;;;4906694;29;20045;-75
2023/06/16 13:23:04;;;;;;;15.48;8.25;;;;;;;;;;4900483;29;20052;-76
2023/06/16 13:25:50;;;;;;;6.45;5.60;;;;;;;;;;4900022;29;20415;-77
2023/06/16 13:28:37;;;;;;;9.90;8.13;;;;;;;;;;4899570;29;20402;-77
2023/06/16 13:31:24;;;;;;;11.07;7.70;;;;;;;;;;4905487;29;20045;-77
2023/06/16 13:34:12;;;;;;;6.47;5.60;;;;;;;;;;4905245;29;20044;-77
2023/06/16 13:36:58;;;;;;;9.65;6.20;;;;;;;;;;4899215;29;20052;-77
2023/06/16 13:39:43;;;;;;;13.48;7.45;;;;;;;;;;4905176;29;20456;-76
2023/06/16 13:42:29;;;;;;;14.23;10.18;;;;;;;;;;4905849;29;20386;-76
2023/06/16 13:45:14;;;;;;;9.30;6.72;;;;;;;;;;4887774;29;76329;-78
2023/06/16 13:48:00;;;;;;;8.93;7.00;;;;;;;;;;4856587;29;1186469;-77
2023/06/16 13:50:47;;;;;;;10.93;7.60;;;;;;;;;;4899258;29;20052;-78
2023/06/16 13:53:32;;;;;;;9.02;7.07;;;;;;;;;;4890549;29;20049;-78
2023/06/16 13:56:19;;;;;;;10.85;8.25;;;;;;;;;;4906993;29;20495;-76
2023/06/16 13:59:05;;;;;;;11.05;8.23;;;;;;;;;;4900615;29;20052;-78
2023/06/16 14:01:51;;;;;;;16.98;9.52;;;;;;;;;;4879286;29;20422;-76
2023/06/16 14:04:36;;;;;;;17.08;10.27;;;;;;;;;;4892922;29;20049;-77
2023/06/16 14:07:22;;;;;;;20.73;12.45;;;;;;;;;;4900235;29;20066;-77
2023/06/16 14:10:15;;;;;;;10.90;7.55;;;;;;;;;;4899313;29;20314;-76
2023/06/16 14:13:00;;;;;;;7.43;5.75;;;;;;;;;;4900239;29;20049;-76
2023/06/16 14:15:49;;;;;;;6.30;5.60;;;;;;;;;;4898244;29;20057;-75
2023/06/16 14:18:34;;;;;;;6.15;4.88;;;;;;;;;;4875859;29;20056;-78
2023/06/16 14:21:19;;;;;;;9.55;5.00;;;;;;;;;;4879624;29;20496;-77
2023/06/16 14:24:05;;;;;;;20.48;11.93;;;;;;;;;;4904264;29;20503;-78
2023/06/16 14:26:50;;;;;;;8.40;5.47;;;;;;;;;;4904087;29;20262;-78
2023/06/16 14:29:35;;;;;;;24.67;13.95;;;;;;;;;;4903988;29;20044;-79
2023/06/16 14:32:33;;;;;;;30.42;17.08;;;;;;;;;;4904581;29;20048;-78
2023/06/16 14:35:19;;;;;;;35.65;18.23;;;;;;;;;;4898526;29;20474;-76
2023/06/16 14:38:05;;;;;;;37.92;19.52;;;;;;;;;;4897903;29;20044;-77
2023/06/16 14:40:51;;;;;;;18.05;11.38;;;;;;;;;;4899651;29;20048;-77
2023/06/16 14:43:38;;;;;;;25.65;13.77;;;;;;;;;;4898874;29;20053;-78
2023/06/16 14:46:23;;;;;;;17.73;9.77;;;;;;;;;;4899730;29;20056;-78
2023/06/16 14:49:09;;;;;;;12.07;6.88;;;;;;;;;;4905949;29;20410;-77
2023/06/16 14:51:55;;;;;;;18.35;7.32;;;;;;;;;;4891763;29;20780;-77
2023/06/16 14:54:42;;;;;;;9.98;6.00;;;;;;;;;;4899563;29;20060;-77
2023/06/16 14:57:27;;;;;;;15.07;9.32;;;;;;;;;;4899307;29;20052;-77
2023/06/16 15:00:13;;;;;;;18.48;10.05;;;;;;;;;;4899612;29;20053;-76
2023/06/16 15:02:59;;;;;;;15.70;8.93;;;;;;;;;;4905798;29;20045;-75
2023/06/16 15:05:45;;;;;;;20.52;9.88;;;;;;;;;;4906014;29;20048;-79
2023/06/16 15:08:30;;;;;;;21.27;11.63;;;;;;;;;;4898867;29;20056;-76
2023/06/16 15:11:16;;;;;;;9.27;5.90;;;;;;;;;;4897693;29;20048;-76
2023/06/16 15:14:01;;;;;;;20.85;10.85;;;;;;;;;;4898570;29;20045;-76
2023/06/16 15:16:47;;;;;;;17.42;9.80;;;;;;;;;;4904429;29;20511;-77
2023/06/16 15:19:32;;;;;;;15.55;8.70;;;;;;;;;;4899435;29;20406;-78
2023/06/16 15:22:17;;;;;;;13.90;7.55;;;;;;;;;;4899263;29;20056;-78
2023/06/16 15:25:03;;;;;;;14.35;8.07;;;;;;;;;;4898956;29;20483;-79
2023/06/16 15:27:49;;;;;;;7.03;4.72;;;;;;;;;;4899066;29;20040;-79
2023/06/16 15:30:34;;;;;;;6.68;4.35;;;;;;;;;;4885494;29;20052;-78
2023/06/16 15:33:20;;;;;;;4.45;3.67;;;;;;;;;;4898846;29;20482;-77
2023/06/16 15:36:07;;;;;;;7.75;5.88;;;;;;;;;;4899090;29;20048;-77
2023/06/16 15:38:55;;;;;;;14.82;9.43;;;;;;;;;;4905336;29;20044;-76
2023/06/16 15:41:47;;;;;;;7.93;4.57;;;;;;;;;;4904241;29;20052;-77
2023/06/16 15:44:32;;;;;;;6.78;4.70;;;;;;;;;;4905550;29;20483;-78
2023/06/16 15:47:19;;;;;;;9.50;5.88;;;;;;;;;;4898989;29;20041;-77
2023/06/16 15:50:05;;;;;;;11.50;5.55;;;;;;;;;;4898644;29;20052;-77
2023/06/16 15:52:54;;;;;;;9.60;6.60;;;;;;;;;;4905103;29;20060;-78
2023/06/16 15:55:40;;;;;;;13.00;7.25;;;;;;;;;;4904502;29;20056;-78
2023/06/16 15:58:25;;;;;;;10.27;6.88;;;;;;;;;;4898969;29;20049;-77
2023/06/16 16:01:11;;;;;;;8.25;5.80;;;;;;;;;;4898878;29;20053;-78
2023/06/16 16:03:57;;;;;;;9.38;6.63;;;;;;;;;;4891107;29;20403;-78
2023/06/16 16:06:42;;;;;;;16.35;11.15;;;;;;;;;;4904568;29;20041;-77
2023/06/16 16:09:27;;;;;;;10.18;7.68;;;;;;;;;;4904746;29;20052;-78
2023/06/16 16:12:13;;;;;;;11.30;7.53;;;;;;;;;;4898218;29;20040;-79
2023/06/16 16:15:00;;;;;;;7.20;6.00;;;;;;;;;;4898514;29;20049;-78
2023/06/16 16:17:45;;;;;;;8.52;5.88;;;;;;;;;;4904813;29;20398;-78
2023/06/16 16:20:31;;;;;;;5.90;5.25;;;;;;;;;;4904965;29;20049;-78
2023/06/16 16:23:17;;;;;;;9.35;7.00;;;;;;;;;;4898969;29;20398;-78
2023/06/16 16:26:02;;;;;;;9.50;7.40;;;;;;;;;;4898642;29;20049;-79
2023/06/16 16:28:50;;;;;;;10.43;7.05;;;;;;;;;;4906005;29;20056;-79
2023/06/16 16:31:36;;;;;;;11.10;7.28;;;;;;;;;;4907426;29;20402;-78
2023/06/16 16:34:23;;;;;;;15.15;9.43;;;;;;;;;;4902208;29;20045;-79
2023/06/16 16:37:09;;;;;;;32.03;15.80;;;;;;;;;;4908535;29;20049;-78